Time;durP1;ratioP1;P1;durP2;ratioP2;P2;SDS_P1;SDS_P2;PMS_P1;PMS_P2;Temp;Humidity;BMP_temperature;BMP_pressure;BME280_temperature;BME280_humidity;BME280_pressure;Samples;Min_cycle;Max_cycle;Signal;HPM_P1;HPM_P2
2021/03/13 00:02:30;;;;;;;0.10;0.10;;;;;;;-2.34;99.27;100377.86;1749133;81;21146;-43
2021/03/13 00:05:43;;;;;;;0.10;0.10;;;;;;;-2.32;99.29;100379.84;1743704;81;21222;-43
2021/03/13 00:08:43;;;;;;;0.10;0.10;;;;;;;-2.30;99.36;100383.15;1752894;81;21126;-43
2021/03/13 00:11:46;;;;;;;0.10;0.10;;;;;;;-2.27;99.43;100387.28;1742768;81;21178;-42
2021/03/13 00:14:47;;;;;;;0.30;0.30;;;;;;;-2.24;99.46;100388.22;1728811;81;21122;-43
2021/03/13 00:17:50;;;;;;;0.37;0.37;;;;;;;-2.25;99.49;100376.69;1762966;80;21166;-43
2021/03/13 00:20:53;;;;;;;0.17;0.17;;;;;;;-2.21;99.55;100385.14;1756265;81;21095;-44
2021/03/13 00:23:55;;;;;;;0.10;0.10;;;;;;;-2.18;99.60;100388.27;1765289;80;21431;-43
2021/03/13 00:26:55;;;;;;;0.37;0.37;;;;;;;-2.15;99.62;100383.03;1759061;81;21126;-42
2021/03/13 00:29:57;;;;;;;0.10;0.10;;;;;;;-2.13;99.68;100376.94;1759995;80;21158;-42
2021/03/13 00:33:00;;;;;;;0.57;0.57;;;;;;;-2.11;99.74;100373.55;1730915;81;21399;-43
2021/03/13 00:36:01;;;;;;;0.10;0.10;;;;;;;-2.08;99.74;100370.99;1743807;81;21151;-43
2021/03/13 00:39:01;;;;;;;0.10;0.10;;;;;;;-2.06;99.78;100373.78;1758827;81;21505;-42
2021/03/13 00:42:02;;;;;;;0.45;0.45;;;;;;;-2.04;99.79;100364.23;1766061;80;21445;-42
2021/03/13 00:45:02;;;;;;;0.20;0.20;;;;;;;-2.02;99.87;100366.20;1774566;80;21111;-43
2021/03/13 00:48:04;;;;;;;0.20;0.20;;;;;;;-2.00;99.92;100368.17;1771555;81;21135;-42
2021/03/13 00:51:05;;;;;;;0.70;0.25;;;;;;;-1.98;99.96;100359.40;1765692;80;21179;-43
2021/03/13 00:54:06;;;;;;;0.20;0.20;;;;;;;-1.95;100.00;100355.00;1780856;80;21116;-43
2021/03/13 00:57:06;;;;;;;0.57;0.57;;;;;;;-1.92;100.00;100355.12;1788122;79;21093;-43
2021/03/13 01:00:07;;;;;;;0.10;0.10;;;;;;;-1.89;100.00;100362.23;1786186;79;21163;-43
2021/03/13 01:03:07;;;;;;;0.20;0.20;;;;;;;-1.86;100.00;100351.63;1762389;80;21126;-42
2021/03/13 01:06:07;;;;;;;0.95;0.42;;;;;;;-1.84;100.00;100358.44;1785207;80;21147;-43
2021/03/13 01:09:11;;;;;;;0.10;0.10;;;;;;;-1.82;100.00;100355.05;1757988;79;21167;-43
2021/03/13 01:12:13;;;;;;;0.57;0.57;;;;;;;-1.78;100.00;100355.45;1785137;79;21166;-42
2021/03/13 01:15:22;;;;;;;0.10;0.10;;;;;;;-1.76;100.00;100367.62;1755178;80;21115;-43
2021/03/13 01:18:24;;;;;;;0.33;0.33;;;;;;;-1.71;100.00;100367.55;1778230;80;21160;-43
2021/03/13 01:21:25;;;;;;;0.10;0.10;;;;;;;-1.68;100.00;100363.12;1773342;80;21146;-43
2021/03/13 01:24:26;;;;;;;0.17;0.17;;;;;;;-1.66;100.00;100369.92;1768113;80;21401;-43
2021/03/13 01:27:27;;;;;;;0.10;0.10;;;;;;;-1.63;100.00;100375.40;1753352;81;21694;-43
2021/03/13 01:30:28;;;;;;;0.30;0.30;;;;;;;-1.61;100.00;100371.48;1756862;80;21123;-43
2021/03/13 01:33:33;;;;;;;0.35;0.35;;;;;;;-1.58;100.00;100371.63;1770976;80;21181;-43
2021/03/13 01:36:33;;;;;;;0.45;0.25;;;;;;;-1.58;100.00;100384.51;1753346;80;21564;-45
2021/03/13 01:39:34;;;;;;;0.28;0.28;;;;;;;-1.54;100.00;100394.30;1775422;80;21167;-42
2021/03/13 01:42:36;;;;;;;0.10;0.10;;;;;;;-1.51;100.00;100397.91;1792555;79;21096;-43
2021/03/13 01:45:39;;;;;;;0.20;0.20;;;;;;;-1.47;100.00;100403.19;1778038;80;21187;-42
2021/03/13 01:48:42;;;;;;;0.10;0.10;;;;;;;-1.44;100.00;100404.12;1774062;80;21162;-43
2021/03/13 01:51:45;;;;;;;0.50;0.50;;;;;;;-1.39;100.00;100412.38;1781733;79;21124;-42
2021/03/13 01:54:46;;;;;;;2.05;0.40;;;;;;;-1.34;100.00;100407.75;1757596;80;21595;-42
2021/03/13 01:57:47;;;;;;;0.10;0.10;;;;;;;-1.32;100.00;100413.22;1740544;80;21171;-43
2021/03/13 02:00:49;;;;;;;0.10;0.10;;;;;;;-1.26;100.00;100412.10;1755079;80;21107;-43
2021/03/13 02:03:52;;;;;;;0.10;0.10;;;;;;;-1.24;100.00;100416.23;1757712;81;21152;-42
2021/03/13 02:07:02;;;;;;;1.20;0.85;;;;;;;-1.21;100.00;100419.87;1758239;81;20976;-42
2021/03/13 02:10:21;;;;;;;1.32;0.65;;;;;;;-1.18;100.00;100421.32;1750625;81;21170;-42
2021/03/13 02:13:36;;;;;;;0.68;0.68;;;;;;;-1.14;100.00;100423.89;1755256;81;21124;-43
2021/03/13 02:16:43;;;;;;;0.15;0.15;;;;;;;-1.11;100.00;100437.73;1756725;81;21102;-42
2021/03/13 02:20:22;;;;;;;0.37;0.37;;;;;;;-1.08;100.00;100427.11;1711211;82;21150;-42
2021/03/13 02:23:25;;;;;;;0.10;0.10;;;;;;;-1.06;100.00;100421.03;1763978;80;21131;-42
2021/03/13 02:26:46;;;;;;;0.10;0.10;;;;;;;-1.07;100.00;100423.39;1708459;83;21138;-43
2021/03/13 02:29:58;;;;;;;0.10;0.10;;;;;;;-1.08;100.00;100429.80;1740041;81;21139;-42
2021/03/13 02:33:33;;;;;;;0.28;0.28;;;;;;;-1.10;100.00;100435.35;1751493;81;21195;-43
2021/03/13 02:36:51;;;;;;;0.10;0.10;;;;;;;-1.10;100.00;100433.19;1736285;81;21154;-42
2021/03/13 02:39:53;;;;;;;0.10;0.10;;;;;;;-1.07;100.00;100434.12;1711810;81;21158;-43
2021/03/13 02:43:04;;;;;;;0.30;0.30;;;;;;;-1.04;100.00;100422.97;1747523;80;21106;-42
2021/03/13 02:46:06;;;;;;;0.10;0.10;;;;;;;-1.06;100.00;100418.84;1761735;81;21593;-44
2021/03/13 02:49:07;;;;;;;0.53;0.53;;;;;;;-1.07;100.00;100414.00;1742447;81;21423;-44
2021/03/13 02:52:10;;;;;;;0.15;0.15;;;;;;;-1.11;100.00;100417.62;1730024;81;21158;-44
2021/03/13 02:55:13;;;;;;;0.15;0.15;;;;;;;-1.14;100.00;100421.20;1767370;79;21142;-43
2021/03/13 02:58:13;;;;;;;0.20;0.20;;;;;;;-1.16;100.00;100428.13;1762145;80;21123;-43
2021/03/13 03:01:14;;;;;;;0.03;0.03;;;;;;;-1.16;100.00;100432.67;1744498;80;21118;-44
2021/03/13 03:04:16;;;;;;;0.10;0.10;;;;;;;-1.16;100.00;100440.72;1750350;81;21133;-44
2021/03/13 03:07:17;;;;;;;0.25;0.25;;;;;;;-1.14;100.00;100444.00;1748299;79;21797;-44
2021/03/13 03:10:21;;;;;;;0.00;0.00;;;;;;;-1.11;100.00;100443.62;1771505;79;21162;-44
2021/03/13 03:13:23;;;;;;;0.10;0.10;;;;;;;-1.08;100.00;100447.23;1768946;79;21130;-44
2021/03/13 03:16:23;;;;;;;0.10;0.10;;;;;;;-1.06;100.00;100455.05;1767869;81;21581;-43
2021/03/13 03:19:24;;;;;;;0.53;0.35;;;;;;;-1.00;100.00;100464.46;1770456;80;21539;-44
2021/03/13 03:22:28;;;;;;;0.25;0.25;;;;;;;-0.96;100.00;100464.37;1729605;81;21182;-44
2021/03/13 03:25:30;;;;;;;1.65;1.27;;;;;;;-0.94;100.00;100467.69;1756634;80;21139;-43
2021/03/13 03:28:33;;;;;;;0.23;0.20;;;;;;;-0.91;100.00;100457.89;1759310;80;21399;-44
2021/03/13 03:31:36;;;;;;;0.35;0.35;;;;;;;-0.85;100.00;100458.09;1762082;81;22038;-44
2021/03/13 03:34:37;;;;;;;0.10;0.10;;;;;;;-0.83;100.00;100453.36;1762174;81;21692;-44
2021/03/13 03:37:37;;;;;;;0.30;0.30;;;;;;;-0.80;100.00;100456.45;1763339;80;21493;-43
2021/03/13 03:40:39;;;;;;;0.20;0.20;;;;;;;-0.75;100.00;100441.08;1742529;81;21147;-43
2021/03/13 03:43:47;;;;;;;0.10;0.10;;;;;;;-0.72;100.00;100446.03;1745733;81;21798;-46
2021/03/13 03:46:49;;;;;;;0.55;0.55;;;;;;;-0.72;100.00;100453.59;1748886;80;21103;-43
2021/03/13 03:49:50;;;;;;;0.45;0.45;;;;;;;-0.69;100.00;100453.69;1732122;81;21135;-44
2021/03/13 03:52:58;;;;;;;0.13;0.13;;;;;;;-0.66;100.00;100455.95;1763217;81;21705;-44
2021/03/13 03:56:01;;;;;;;0.70;0.70;;;;;;;-0.64;100.00;100456.58;1768113;80;21130;-43
2021/03/13 03:59:02;;;;;;;0.10;0.10;;;;;;;-0.63;100.00;100452.86;1771544;81;21179;-45
2021/03/13 04:02:03;;;;;;;0.10;0.10;;;;;;;-0.61;100.00;100450.80;1750830;81;20968;-44
2021/03/13 04:05:03;;;;;;;0.30;0.30;;;;;;;-0.58;100.00;100455.75;1754617;80;21611;-44
2021/03/13 04:08:03;;;;;;;1.27;0.40;;;;;;;-0.57;100.00;100457.42;1763872;80;21162;-43
2021/03/13 04:11:05;;;;;;;4.35;0.50;;;;;;;-0.55;100.00;100462.56;1749403;80;21147;-45
2021/03/13 04:14:05;;;;;;;0.28;0.28;;;;;;;-0.52;100.00;100471.05;1733296;81;21133;-44
2021/03/13 04:17:06;;;;;;;0.13;0.13;;;;;;;-0.49;100.00;100462.57;1722712;80;21172;-44
2021/03/13 04:20:06;;;;;;;0.65;0.65;;;;;;;-0.46;100.00;100468.05;1746199;80;21669;-44
2021/03/13 04:23:07;;;;;;;0.70;0.68;;;;;;;-0.43;100.00;100463.59;1750374;81;21159;-43
2021/03/13 04:26:07;;;;;;;0.20;0.20;;;;;;;-0.39;100.00;100466.71;1758731;80;21206;-44
2021/03/13 04:29:08;;;;;;;0.90;0.85;;;;;;;-0.36;100.00;100468.97;1758077;81;21102;-43
2021/03/13 04:32:09;;;;;;;0.40;0.40;;;;;;;-0.34;100.00;100476.31;1736542;82;21146;-44
2021/03/13 04:35:10;;;;;;;2.25;0.90;;;;;;;-0.32;100.00;100479.59;1757825;80;21129;-44
2021/03/13 04:38:10;;;;;;;0.30;0.30;;;;;;;-0.29;100.00;100481.88;1729582;81;22488;-44
2021/03/13 04:41:10;;;;;;;0.10;0.10;;;;;;;-0.26;100.00;100472.88;1722856;80;21522;-46
2021/03/13 04:44:12;;;;;;;0.40;0.40;;;;;;;-0.23;100.00;100472.98;1739463;81;21149;-44
2021/03/13 04:47:12;;;;;;;2.27;0.55;;;;;;;-0.20;100.00;100476.59;1758628;81;21161;-44
2021/03/13 04:50:15;;;;;;;0.75;0.75;;;;;;;-0.17;100.00;100480.23;1745588;80;21147;-45
2021/03/13 04:53:15;;;;;;;0.10;0.10;;;;;;;-0.12;100.00;100475.58;1796576;78;21133;-45
2021/03/13 04:56:17;;;;;;;0.10;0.10;;;;;;;-0.08;100.00;100471.41;1752898;80;21439;-45
2021/03/13 04:59:17;;;;;;;0.30;0.30;;;;;;;-0.06;100.00;100464.80;1770495;80;21103;-46
2021/03/13 05:02:18;;;;;;;0.10;0.10;;;;;;;-0.01;100.00;100465.00;1757062;80;21151;-46
2021/03/13 05:05:18;;;;;;;0.93;0.70;;;;;;;0.03;100.00;100474.00;1787352;78;21194;-46
2021/03/13 05:08:20;;;;;;;0.35;0.23;;;;;;;0.05;100.00;100484.84;1755434;80;21182;-46
2021/03/13 05:11:22;;;;;;;0.08;0.08;;;;;;;0.08;100.00;100491.67;1784976;79;21187;-45
2021/03/13 05:14:23;;;;;;;0.53;0.37;;;;;;;0.11;100.00;100488.03;1784777;79;21584;-45
2021/03/13 05:17:23;;;;;;;0.20;0.20;;;;;;;0.14;100.00;100484.91;1794250;79;21498;-47
2021/03/13 05:20:25;;;;;;;0.60;0.60;;;;;;;0.18;100.00;100482.65;1792382;79;21119;-45
2021/03/13 05:23:25;;;;;;;1.75;0.45;;;;;;;0.22;100.00;100474.45;1786409;80;21136;-45
2021/03/13 05:26:26;;;;;;;1.27;1.17;;;;;;;0.25;100.00;100474.05;1762370;81;21115;-45
2021/03/13 05:29:27;;;;;;;0.42;0.30;;;;;;;0.30;100.00;100477.46;1764168;80;21139;-45
2021/03/13 05:32:27;;;;;;;0.75;0.75;;;;;;;0.35;100.00;100482.50;1783876;79;21614;-44
2021/03/13 05:35:27;;;;;;;0.98;0.85;;;;;;;0.40;100.00;100493.45;1762291;80;21705;-45
2021/03/13 05:38:30;;;;;;;1.98;1.02;;;;;;;0.47;100.00;100496.61;1787943;80;21130;-45
2021/03/13 05:41:30;;;;;;;0.15;0.15;;;;;;;0.51;100.00;100506.73;1782850;80;21143;-46
2021/03/13 05:44:31;;;;;;;0.30;0.30;;;;;;;0.57;100.00;100514.47;1774450;80;21426;-45
2021/03/13 05:47:31;;;;;;;0.33;0.33;;;;;;;0.60;100.00;100520.79;1754006;80;21131;-46
2021/03/13 05:50:32;;;;;;;0.30;0.30;;;;;;;0.65;100.00;100520.98;1762527;80;21123;-45
2021/03/13 05:53:32;;;;;;;0.13;0.13;;;;;;;0.68;100.00;100529.96;1789490;78;21155;-46
2021/03/13 05:56:33;;;;;;;0.55;0.30;;;;;;;0.75;100.00;100538.84;1768598;80;21142;-47
2021/03/13 05:59:33;;;;;;;0.23;0.23;;;;;;;0.80;100.00;100548.44;1787690;78;21155;-46
2021/03/13 06:02:34;;;;;;;0.10;0.10;;;;;;;0.85;100.00;100546.45;1775480;79;21211;-46
2021/03/13 06:05:34;;;;;;;0.65;0.65;;;;;;;0.93;100.00;100560.19;1766390;80;21169;-46
2021/03/13 06:08:35;;;;;;;0.72;0.72;;;;;;;1.02;100.00;100571.03;1769842;80;21182;-46
2021/03/13 06:11:37;;;;;;;1.60;0.55;;;;;;;1.09;100.00;100569.14;1785040;80;21170;-45
2021/03/13 06:14:37;;;;;;;0.20;0.20;;;;;;;1.19;100.00;100572.19;1758608;80;21249;-46
2021/03/13 06:18:07;;;;;;;0.57;0.57;;;;;;;1.29;100.00;100573.89;1783181;79;21123;-45
2021/03/13 06:21:10;;;;;;;0.33;0.33;;;;;;;1.41;100.00;100574.54;1776610;80;21411;-45
2021/03/13 06:24:24;;;;;;;0.62;0.62;;;;;;;1.53;100.00;100574.16;1731898;80;21497;-45
2021/03/13 06:27:24;;;;;;;0.27;0.27;;;;;;;1.62;100.00;100571.52;1754809;80;21157;-45
2021/03/13 06:30:25;;;;;;;0.42;0.42;;;;;;;1.70;100.00;100571.25;1734772;80;21848;-46
2021/03/13 06:33:39;;;;;;;0.57;0.42;;;;;;;1.78;100.00;100575.57;1758676;80;21448;-45
2021/03/13 06:36:39;;;;;;;1.55;0.50;;;;;;;1.87;100.00;100578.81;1771785;80;21106;-44
2021/03/13 06:39:46;;;;;;;0.98;0.42;;;;;;;1.96;100.00;100586.94;1783052;80;21187;-45
2021/03/13 06:42:49;;;;;;;2.75;1.37;;;;;;;2.02;100.00;100595.48;1797982;79;21558;-46
2021/03/13 06:46:16;;;;;;;0.68;0.68;;;;;;;2.08;100.00;100595.96;1782640;79;21499;-44
2021/03/13 06:49:16;;;;;;;2.22;1.65;;;;;;;2.17;100.00;100592.98;1752742;80;21111;-44
2021/03/13 06:52:23;;;;;;;0.53;0.53;;;;;;;2.28;99.82;100599.02;1728994;80;21150;-44
2021/03/13 06:55:31;;;;;;;1.75;1.07;;;;;;;2.33;99.22;100596.48;1774982;79;21165;-45
2021/03/13 06:58:37;;;;;;;1.65;1.55;;;;;;;2.42;98.97;100589.73;1767994;79;21153;-44
2021/03/13 07:01:38;;;;;;;0.35;0.35;;;;;;;2.53;98.67;100589.02;1786349;79;21079;-44
2021/03/13 07:04:45;;;;;;;1.35;0.85;;;;;;;2.67;98.25;100584.83;1776974;80;21210;-44
2021/03/13 07:07:46;;;;;;;5.45;0.42;;;;;;;2.83;98.00;100588.29;1780109;79;21154;-43
2021/03/13 07:10:46;;;;;;;0.23;0.23;;;;;;;2.99;97.23;100602.55;1760514;80;21538;-45
2021/03/13 07:13:55;;;;;;;0.70;0.70;;;;;;;3.19;97.05;100596.91;1744545;80;21597;-44
2021/03/13 07:16:57;;;;;;;3.30;0.78;;;;;;;3.40;96.34;100602.86;1779440;80;21134;-45
2021/03/13 07:19:58;;;;;;;0.55;0.55;;;;;;;3.55;95.39;100608.67;1758202;80;21159;-44
2021/03/13 07:23:04;;;;;;;1.10;1.00;;;;;;;3.69;94.68;100610.68;1806931;78;21145;-44
2021/03/13 07:26:05;;;;;;;1.52;1.42;;;;;;;3.87;94.17;100616.02;1790244;80;21135;-44
2021/03/13 07:29:06;;;;;;;0.72;0.72;;;;;;;4.11;93.40;100613.37;1792570;80;21559;-44
2021/03/13 07:32:11;;;;;;;0.13;0.13;;;;;;;4.35;92.37;100613.39;1796537;78;21147;-44
2021/03/13 07:35:12;;;;;;;1.02;1.02;;;;;;;4.60;91.83;100612.66;1793752;78;21604;-45
2021/03/13 07:38:15;;;;;;;1.65;0.95;;;;;;;4.91;90.76;100613.31;1735902;81;21207;-46
2021/03/13 07:41:16;;;;;;;0.72;0.72;;;;;;;5.20;89.23;100613.39;1776132;80;21186;-46
2021/03/13 07:44:16;;;;;;;0.55;0.55;;;;;;;5.41;87.71;100616.78;1762301;81;21140;-45
2021/03/13 07:47:20;;;;;;;0.45;0.45;;;;;;;5.47;86.67;100615.83;1762366;80;21147;-46
2021/03/13 07:50:21;;;;;;;0.55;0.55;;;;;;;5.54;85.67;100612.98;1767250;80;21193;-47
2021/03/13 07:53:22;;;;;;;1.67;1.00;;;;;;;5.55;84.73;100611.38;1760741;81;21233;-45
2021/03/13 07:56:22;;;;;;;1.22;1.12;;;;;;;5.62;84.16;100610.41;1762612;80;21186;-46
2021/03/13 07:59:48;;;;;;;0.80;0.30;;;;;;;5.58;83.36;100609.52;1766321;79;21225;-46
2021/03/13 08:02:52;;;;;;;0.20;0.20;;;;;;;5.56;82.70;100614.39;1753397;80;21189;-46
2021/03/13 08:06:05;;;;;;;1.32;1.22;;;;;;;5.60;82.50;100614.17;1755400;81;21158;-46
2021/03/13 08:09:29;;;;;;;0.20;0.20;;;;;;;5.71;82.09;100618.42;1762467;80;21455;-49
2021/03/13 08:12:49;;;;;;;0.90;0.90;;;;;;;5.77;81.50;100609.34;1762426;81;21147;-49
2021/03/13 08:15:51;;;;;;;1.25;0.95;;;;;;;5.76;81.28;100602.25;1755570;80;21146;-47
2021/03/13 08:18:59;;;;;;;1.12;1.07;;;;;;;5.82;81.03;100612.95;1784164;80;21158;-48
2021/03/13 08:22:22;;;;;;;0.57;0.42;;;;;;;5.92;80.74;100606.89;1783695;80;20996;-48
2021/03/13 08:25:32;;;;;;;0.40;0.40;;;;;;;6.04;80.37;100600.08;1784095;80;21108;-49
2021/03/13 08:28:58;;;;;;;1.55;0.78;;;;;;;6.14;79.97;100608.92;1754652;81;21156;-49
2021/03/13 08:31:58;;;;;;;0.45;0.45;;;;;;;6.28;79.54;100609.40;1784199;80;21422;-49
2021/03/13 08:34:58;;;;;;;0.95;0.68;;;;;;;6.34;78.60;100611.96;1760755;80;21532;-49
2021/03/13 08:37:59;;;;;;;0.75;0.75;;;;;;;6.48;78.12;100606.19;1742472;80;21729;-48
2021/03/13 08:40:59;;;;;;;1.12;1.07;;;;;;;6.61;78.04;100605.86;1772410;80;21213;-49
2021/03/13 08:44:06;;;;;;;0.75;0.75;;;;;;;6.75;77.36;100608.52;1761611;81;21190;-49
2021/03/13 08:47:20;;;;;;;1.00;1.00;;;;;;;6.83;76.67;100611.33;1752882;80;39593;-48
2021/03/13 08:50:22;;;;;;;0.75;0.75;;;;;;;6.91;76.26;100610.08;1784285;80;21138;-49
2021/03/13 08:53:39;;;;;;;2.05;1.85;;;;;;;7.00;75.83;100605.86;1742381;80;21154;-49
2021/03/13 08:56:49;;;;;;;0.35;0.30;;;;;;;7.06;75.56;100614.34;1789845;80;21126;-48
2021/03/13 09:00:01;;;;;;;0.10;0.10;;;;;;;7.25;74.16;100611.61;1776299;80;21191;-49
2021/03/13 09:03:01;;;;;;;0.15;0.15;;;;;;;7.33;73.81;100620.66;1758854;80;21151;-49
2021/03/13 09:06:01;;;;;;;1.00;1.00;;;;;;;7.37;73.31;100611.99;1774620;80;21459;-48
2021/03/13 09:09:22;;;;;;;1.05;0.93;;;;;;;7.34;73.18;100614.69;1786751;80;21139;-48
2021/03/13 09:12:30;;;;;;;0.30;0.30;;;;;;;7.31;72.96;100611.94;1762253;80;21158;-48
2021/03/13 09:15:31;;;;;;;1.32;1.22;;;;;;;7.31;72.73;100613.30;1806092;79;21159;-49
2021/03/13 09:18:31;;;;;;;0.37;0.37;;;;;;;7.36;72.40;100620.69;1767685;81;21139;-49
2021/03/13 09:21:54;;;;;;;0.62;0.62;;;;;;;7.48;71.95;100623.28;1769844;79;21688;-48
2021/03/13 09:25:05;;;;;;;1.72;0.98;;;;;;;7.56;70.99;100626.09;1759167;80;21101;-48
2021/03/13 09:28:08;;;;;;;0.55;0.55;;;;;;;7.55;70.66;100627.99;1769884;80;21151;-48
2021/03/13 09:31:08;;;;;;;0.88;0.88;;;;;;;7.43;70.95;100624.05;1784441;80;21170;-48
2021/03/13 09:34:20;;;;;;;0.98;0.82;;;;;;;7.42;70.97;100621.56;1757660;80;21186;-49
2021/03/13 09:37:34;;;;;;;2.42;0.55;;;;;;;7.47;70.71;100628.45;1780094;79;21218;-49
2021/03/13 09:40:34;;;;;;;1.60;1.45;;;;;;;7.47;70.61;100621.66;1790509;78;21434;-49
2021/03/13 09:43:45;;;;;;;0.50;0.50;;;;;;;7.41;70.41;100622.11;1804850;78;21170;-49
2021/03/13 09:46:45;;;;;;;0.62;0.62;;;;;;;7.33;70.47;100622.02;1758159;80;21135;-49
2021/03/13 09:49:45;;;;;;;4.72;0.65;;;;;;;7.40;70.60;100623.20;1757958;80;21602;-48
2021/03/13 09:52:48;;;;;;;0.78;0.78;;;;;;;7.53;70.56;100626.87;1755229;81;21186;-49
2021/03/13 09:55:52;;;;;;;0.30;0.30;;;;;;;7.59;70.14;100625.05;1757478;80;26634;-49
2021/03/13 09:59:03;;;;;;;0.78;0.78;;;;;;;7.55;70.19;100618.47;1742750;81;21169;-48
2021/03/13 10:02:03;;;;;;;0.93;0.93;;;;;;;7.56;70.08;100624.19;1756929;81;21697;-49
2021/03/13 10:05:03;;;;;;;2.05;0.85;;;;;;;7.67;68.94;100621.88;1723366;81;21171;-50
2021/03/13 10:08:14;;;;;;;0.60;0.45;;;;;;;7.65;69.06;100617.22;1757647;80;21158;-48
2021/03/13 10:11:14;;;;;;;0.47;0.47;;;;;;;7.64;69.10;100611.52;1756840;81;21546;-49
2021/03/13 10:14:26;;;;;;;0.23;0.23;;;;;;;7.67;68.87;100616.97;1757039;81;21128;-48
2021/03/13 10:17:26;;;;;;;0.30;0.20;;;;;;;7.70;68.86;100625.44;1761255;81;21211;-49
2021/03/13 10:20:29;;;;;;;0.88;0.78;;;;;;;7.95;68.47;100622.69;1756973;81;21617;-48
2021/03/13 10:23:40;;;;;;;1.37;0.28;;;;;;;8.24;68.02;100625.13;1757072;81;21139;-48
2021/03/13 10:26:41;;;;;;;2.40;1.15;;;;;;;8.52;67.23;100622.65;1765122;80;21159;-48
2021/03/13 10:29:41;;;;;;;1.47;0.95;;;;;;;8.49;66.48;100622.63;1758891;80;21162;-48
2021/03/13 10:32:43;;;;;;;3.83;1.20;;;;;;;8.52;66.22;100619.38;1752930;81;21189;-48
2021/03/13 10:35:44;;;;;;;1.57;1.47;;;;;;;8.56;66.10;100621.87;1784171;80;21655;-48
2021/03/13 10:38:54;;;;;;;0.60;0.60;;;;;;;8.58;65.53;100621.07;1755132;80;21161;-48
2021/03/13 10:42:01;;;;;;;1.47;1.17;;;;;;;8.51;64.97;100623.20;1784031;80;21329;-47
2021/03/13 10:45:01;;;;;;;1.30;1.20;;;;;;;8.09;65.29;100623.09;1752933;81;21207;-48
2021/03/13 10:48:08;;;;;;;1.02;0.82;;;;;;;7.77;66.28;100614.91;1771057;81;21162;-48
2021/03/13 10:51:09;;;;;;;0.47;0.35;;;;;;;7.52;67.22;100627.15;1767955;81;21171;-48
2021/03/13 10:54:11;;;;;;;2.62;1.67;;;;;;;7.38;67.80;100620.45;1768049;81;21574;-47
2021/03/13 10:57:12;;;;;;;0.13;0.13;;;;;;;7.28;68.59;100608.38;1767959;81;20983;-48
2021/03/13 11:00:16;;;;;;;0.47;0.47;;;;;;;7.16;69.03;100607.67;1798247;78;21677;-47
2021/03/13 11:03:16;;;;;;;0.60;0.60;;;;;;;6.92;70.14;100614.42;1757272;80;21154;-48
2021/03/13 11:06:19;;;;;;;1.40;0.93;;;;;;;6.86;70.45;100614.90;1753791;80;21132;-47
2021/03/13 11:09:20;;;;;;;1.03;1.03;;;;;;;6.89;70.33;100608.41;1754590;80;21179;-47
2021/03/13 11:12:20;;;;;;;2.40;0.72;;;;;;;6.82;70.99;100606.41;1762113;81;22000;-48
2021/03/13 11:15:21;;;;;;;0.53;0.53;;;;;;;6.65;71.62;100593.41;1762460;80;21127;-47
2021/03/13 11:18:23;;;;;;;5.47;1.90;;;;;;;6.41;72.43;100597.69;1736527;80;21167;-47
2021/03/13 11:21:24;;;;;;;1.05;0.98;;;;;;;6.37;72.99;100598.42;1765045;80;21187;-48
2021/03/13 11:24:25;;;;;;;4.12;1.30;;;;;;;6.36;73.49;100603.04;1784016;80;21530;-49
2021/03/13 11:27:26;;;;;;;0.23;0.23;;;;;;;6.30;73.95;100601.30;1753132;81;21432;-48
2021/03/13 11:30:27;;;;;;;0.90;0.90;;;;;;;6.28;74.37;100602.62;1772021;79;21119;-47
2021/03/13 11:33:28;;;;;;;0.70;0.70;;;;;;;6.29;74.38;100599.67;1768413;79;21185;-47
2021/03/13 11:36:29;;;;;;;1.10;0.98;;;;;;;6.31;74.53;100595.36;1767692;81;21143;-47
2021/03/13 11:39:30;;;;;;;1.75;0.20;;;;;;;6.36;74.63;100598.16;1767664;81;21119;-48
2021/03/13 11:42:30;;;;;;;0.62;0.62;;;;;;;6.35;74.54;100590.52;1768284;81;21557;-48
2021/03/13 11:45:31;;;;;;;0.10;0.10;;;;;;;6.23;74.98;100589.78;1768154;81;21171;-47
2021/03/13 11:48:31;;;;;;;0.30;0.30;;;;;;;6.11;75.49;100583.62;1762064;81;21194;-47
2021/03/13 11:51:32;;;;;;;1.30;0.93;;;;;;;6.01;77.04;100580.23;1762921;80;21142;-48
2021/03/13 11:54:32;;;;;;;0.50;0.40;;;;;;;6.06;77.05;100574.04;1785646;80;21135;-47
2021/03/13 11:57:32;;;;;;;1.45;1.35;;;;;;;6.14;77.11;100574.47;1772883;80;21183;-48
2021/03/13 12:00:33;;;;;;;0.62;0.62;;;;;;;6.23;76.63;100574.86;1776330;80;21143;-48
2021/03/13 12:03:35;;;;;;;2.90;0.98;;;;;;;6.39;76.38;100578.11;1776814;80;21467;-48
2021/03/13 12:06:36;;;;;;;2.85;1.25;;;;;;;6.54;75.60;100580.77;1782254;80;21159;-48
2021/03/13 12:09:36;;;;;;;0.20;0.20;;;;;;;6.55;75.29;100578.33;1780717;80;21195;-47
2021/03/13 12:12:36;;;;;;;0.65;0.65;;;;;;;6.52;75.03;100574.77;1784277;80;21103;-48
2021/03/13 12:15:37;;;;;;;0.30;0.30;;;;;;;6.52;74.49;100581.55;1793814;79;21143;-48
2021/03/13 12:18:37;;;;;;;0.42;0.42;;;;;;;6.48;74.45;100581.23;1784400;80;21573;-47
2021/03/13 12:21:38;;;;;;;1.00;0.72;;;;;;;6.42;75.19;100578.96;1779216;80;21143;-47
2021/03/13 12:24:40;;;;;;;3.25;1.17;;;;;;;6.42;75.78;100569.45;1764607;80;21200;-47
2021/03/13 12:27:40;;;;;;;1.98;1.77;;;;;;;6.55;76.33;100572.39;1759699;80;21146;-47
2021/03/13 12:30:41;;;;;;;1.55;1.17;;;;;;;6.64;75.54;100579.01;1766754;80;21513;-47
2021/03/13 12:33:44;;;;;;;1.27;1.20;;;;;;;6.75;74.61;100578.64;1772541;80;21124;-47
2021/03/13 12:36:44;;;;;;;0.82;0.55;;;;;;;6.80;75.03;100576.50;1761591;80;21138;-47
2021/03/13 12:39:46;;;;;;;3.67;2.37;;;;;;;6.80;75.18;100567.84;1757879;80;21139;-47
2021/03/13 12:42:47;;;;;;;0.80;0.80;;;;;;;6.80;75.18;100567.84;1738998;80;21940;-47
2021/03/13 12:45:49;;;;;;;1.50;1.40;;;;;;;6.77;75.03;100565.60;1760831;80;21119;-47
2021/03/13 12:48:50;;;;;;;4.40;1.02;;;;;;;6.68;75.17;100571.20;1787562;80;21166;-47
2021/03/13 12:51:51;;;;;;;2.12;1.00;;;;;;;6.58;75.09;100565.63;1779577;80;21147;-48
2021/03/13 12:54:52;;;;;;;0.37;0.33;;;;;;;6.52;75.97;100562.55;1770429;79;21454;-47
2021/03/13 12:57:54;;;;;;;1.20;1.07;;;;;;;6.55;75.83;100567.47;1757682;80;21134;-47
2021/03/13 13:00:56;;;;;;;1.77;1.02;;;;;;;6.64;75.21;100560.00;1755873;81;21102;-47
2021/03/13 13:04:06;;;;;;;1.42;0.57;;;;;;;6.88;74.50;100560.60;1729106;82;21166;-47
2021/03/13 13:07:08;;;;;;;0.40;0.40;;;;;;;7.09;73.83;100565.73;1767082;80;21127;-48
2021/03/13 13:10:08;;;;;;;3.47;0.82;;;;;;;7.04;73.50;100560.24;1737869;81;21166;-49
2021/03/13 13:13:09;;;;;;;1.15;0.95;;;;;;;7.08;73.70;100568.73;1760761;80;21118;-47
2021/03/13 13:16:09;;;;;;;1.60;0.88;;;;;;;7.26;72.48;100558.87;1743462;81;21122;-48
2021/03/13 13:19:12;;;;;;;0.80;0.80;;;;;;;7.47;71.49;100565.38;1756455;80;21602;-48
2021/03/13 13:22:12;;;;;;;0.23;0.23;;;;;;;7.71;69.91;100556.34;1763908;80;21186;-48
2021/03/13 13:25:16;;;;;;;0.30;0.28;;;;;;;7.98;68.13;100555.49;1774284;80;21210;-48
2021/03/13 13:28:17;;;;;;;0.30;0.30;;;;;;;8.17;67.25;100559.46;1734370;81;21131;-47
2021/03/13 13:31:18;;;;;;;0.40;0.40;;;;;;;8.24;66.62;100554.35;1738002;81;21119;-47
2021/03/13 13:34:19;;;;;;;1.05;0.70;;;;;;;8.32;66.01;100545.69;1735982;81;21167;-48
2021/03/13 13:37:19;;;;;;;0.15;0.15;;;;;;;8.42;65.37;100545.78;1734591;81;21143;-49
2021/03/13 13:40:23;;;;;;;1.55;0.78;;;;;;;8.50;65.18;100543.91;1748259;81;21446;-47
2021/03/13 13:43:25;;;;;;;1.47;0.80;;;;;;;8.43;64.18;100552.05;1783543;80;21130;-48
2021/03/13 13:46:26;;;;;;;0.00;0.00;;;;;;;8.33;64.47;100552.77;1764530;80;21117;-47
2021/03/13 13:49:26;;;;;;;1.15;0.25;;;;;;;8.38;64.69;100551.43;1731397;81;21079;-47
2021/03/13 13:52:27;;;;;;;0.37;0.37;;;;;;;8.51;64.08;100547.48;1729167;82;21175;-48
2021/03/13 13:55:27;;;;;;;0.47;0.30;;;;;;;8.56;63.37;100549.69;1745861;81;21163;-49
2021/03/13 13:58:28;;;;;;;0.40;0.40;;;;;;;8.57;63.58;100545.87;1727951;81;21000;-47
2021/03/13 14:01:28;;;;;;;0.80;0.20;;;;;;;8.53;63.74;100541.20;1774551;80;21145;-48
2021/03/13 14:04:29;;;;;;;1.72;0.75;;;;;;;8.41;63.95;100553.69;1761110;80;21116;-48
2021/03/13 14:07:30;;;;;;;0.40;0.37;;;;;;;8.26;64.18;100553.01;1757041;81;21459;-48
2021/03/13 14:10:34;;;;;;;;;;;;;;;8.15;64.48;100551.28;1767562;80;21549;-48
2021/03/13 14:13:36;;;;;;;1.27;0.60;;;;;;;8.03;64.62;100550.09;1736515;81;20251;-49
2021/03/13 14:16:37;;;;;;;0.70;0.70;;;;;;;7.88;64.94;100551.33;1751877;81;22081;-48